Time;durP1;ratioP1;P1;durP2;ratioP2;P2;SDS_P1;SDS_P2;PMS_P1;PMS_P2;Temp;Humidity;BMP_temperature;BMP_pressure;BME280_temperature;BME280_humidity;BME280_pressure;Samples;Min_cycle;Max_cycle;Signal;HPM_P1;HPM_P2
2021/11/14 00:02:15;;;;;;;1.92;1.10;;;11.50;1.00;;;;;;5015419;28;20041;-74
2021/11/14 00:04:46;;;;;;;2.97;1.20;;;11.40;1.00;;;;;;5015485;28;20034;-74
2021/11/14 00:07:12;;;;;;;3.92;1.50;;;11.30;3.20;;;;;;5014986;28;20042;-74
2021/11/14 00:09:39;;;;;;;3.97;1.52;;;11.40;1.00;;;;;;5015199;28;20393;-73
2021/11/14 00:12:05;;;;;;;2.53;1.15;;;11.40;1.00;;;;;;5015906;28;20096;-74
2021/11/14 00:14:31;;;;;;;4.35;1.30;;;11.40;1.30;;;;;;5015061;28;20069;-74
2021/11/14 00:16:57;;;;;;;3.42;1.63;;;11.50;1.00;;;;;;5014884;28;20042;-74
2021/11/14 00:19:23;;;;;;;2.47;1.30;;;11.60;1.00;;;;;;5015332;28;20121;-74
2021/11/14 00:21:49;;;;;;;4.43;1.30;;;11.60;1.00;;;;;;5015182;28;20132;-74
2021/11/14 00:24:16;;;;;;;4.78;1.67;;;11.60;1.00;;;;;;5015183;28;20034;-74
2021/11/14 00:26:43;;;;;;;4.18;1.60;;;11.60;1.00;;;;;;5015152;28;20121;-74
2021/11/14 00:29:10;;;;;;;2.90;1.20;;;11.60;1.00;;;;;;5015259;28;20129;-74
2021/11/14 00:31:36;;;;;;;2.60;1.40;;;11.50;1.00;;;;;;5014886;28;20046;-74
2021/11/14 00:34:05;;;;;;;3.67;1.30;;;11.40;1.00;;;;;;5015063;28;20038;-74
2021/11/14 00:36:36;;;;;;;4.85;1.50;;;11.30;6.80;;;;;;5014616;28;20042;-74
2021/11/14 00:39:04;;;;;;;1.77;1.30;;;11.30;2.40;;;;;;5014935;28;20034;-74
2021/11/14 00:41:30;;;;;;;4.32;1.23;;;11.30;6.10;;;;;;5014996;28;20046;-73
2021/11/14 00:43:56;;;;;;;3.50;1.15;;;11.40;6.30;;;;;;5014638;28;20049;-74
2021/11/14 00:46:22;;;;;;;3.60;0.95;;;11.50;1.00;;;;;;5014755;28;20076;-74
2021/11/14 00:48:48;;;;;;;2.83;1.15;;;11.50;4.70;;;;;;5015316;28;20066;-74
2021/11/14 00:51:18;;;;;;;1.25;0.88;;;11.50;3.70;;;;;;5015159;28;20411;-74
2021/11/14 00:53:44;;;;;;;3.22;1.45;;;11.50;4.90;;;;;;5014787;28;20049;-73
2021/11/14 00:56:10;;;;;;;1.77;0.90;;;11.40;13.30;;;;;;5015073;28;20045;-74
2021/11/14 00:58:36;;;;;;;0.43;0.43;;;11.40;1.00;;;;;;5015102;28;20037;-74
2021/11/14 01:01:02;;;;;;;4.78;0.75;;;11.60;1.00;;;;;;5015031;28;20049;-74
2021/11/14 01:03:28;;;;;;;2.42;0.98;;;11.60;1.00;;;;;;5014782;28;20065;-74
2021/11/14 01:05:54;;;;;;;2.78;1.40;;;11.50;1.00;;;;;;4997660;28;20062;-74
2021/11/14 01:08:21;;;;;;;1.70;0.90;;;11.40;3.60;;;;;;5014891;28;20118;-74
2021/11/14 01:10:50;;;;;;;1.48;0.77;;;11.30;3.10;;;;;;5014937;28;20045;-74
2021/11/14 01:13:16;;;;;;;3.35;0.88;;;11.30;1.00;;;;;;5014894;28;20485;-74
2021/11/14 01:15:44;;;;;;;0.50;0.43;;;11.30;1.20;;;;;;5014612;28;20125;-74
2021/11/14 01:18:12;;;;;;;0.80;0.25;;;11.30;1.00;;;;;;5014401;28;20042;-73
2021/11/14 01:20:41;;;;;;;0.82;0.60;;;11.20;3.10;;;;;;5018474;28;20037;-74
2021/11/14 01:23:10;;;;;;;1.00;0.40;;;11.20;6.30;;;;;;5018833;28;20046;-74
2021/11/14 01:25:37;;;;;;;0.70;0.60;;;11.20;7.40;;;;;;5018826;28;20042;-74
2021/11/14 01:28:04;;;;;;;0.80;0.50;;;11.20;4.60;;;;;;5019036;28;20042;-74
2021/11/14 01:30:35;;;;;;;1.48;0.38;;;11.10;10.90;;;;;;5018663;28;20055;-73
2021/11/14 01:33:04;;;;;;;0.77;0.30;;;11.10;16.30;;;;;;5018507;28;20049;-74
2021/11/14 01:35:30;;;;;;;0.52;0.30;;;11.00;18.30;;;;;;5018605;28;20062;-74
2021/11/14 01:37:57;;;;;;;1.95;0.30;;;11.00;23.40;;;;;;5019053;28;20049;-74
2021/11/14 01:40:32;;;;;;;2.83;0.43;;;10.90;27.80;;;;;;5019187;28;20037;-74
2021/11/14 01:42:58;;;;;;;0.30;0.30;;;10.90;25.20;;;;;;5018517;28;20504;-74
2021/11/14 01:45:25;;;;;;;0.22;0.22;;;10.90;26.60;;;;;;5018126;28;20493;-74
2021/11/14 01:47:51;;;;;;;0.28;0.25;;;10.90;15.30;;;;;;5018022;28;20042;-74
2021/11/14 01:50:18;;;;;;;0.30;0.30;;;11.00;16.00;;;;;;5018653;28;20049;-74
2021/11/14 01:52:46;;;;;;;2.47;0.60;;;10.90;27.10;;;;;;5018000;28;20072;-74
2021/11/14 01:55:16;;;;;;;0.50;0.20;;;10.90;37.30;;;;;;5017935;28;20157;-74
2021/11/14 01:57:42;;;;;;;1.40;1.00;;;10.80;29.30;;;;;;5018669;28;20038;-75
2021/11/14 02:00:15;;;;;;;0.40;0.30;;;10.70;29.70;;;;;;5018425;28;20390;-74
2021/11/14 02:02:41;;;;;;;0.57;0.30;;;10.80;17.50;;;;;;5018072;28;20128;-74
2021/11/14 02:05:09;;;;;;;0.68;0.40;;;10.80;17.80;;;;;;5017946;28;20048;-74
2021/11/14 02:07:35;;;;;;;1.35;0.60;;;10.90;14.00;;;;;;5017718;28;20069;-74
2021/11/14 02:10:01;;;;;;;1.20;0.40;;;11.00;9.00;;;;;;5018272;28;20042;-74
2021/11/14 02:12:26;;;;;;;0.73;0.60;;;11.00;8.90;;;;;;5017997;28;20041;-74
2021/11/14 02:14:52;;;;;;;0.82;0.50;;;11.00;4.50;;;;;;5017836;28;20472;-74
2021/11/14 02:17:18;;;;;;;0.52;0.43;;;11.00;5.00;;;;;;5017570;28;20489;-74
2021/11/14 02:19:50;;;;;;;3.10;1.13;;;10.90;5.80;;;;;;5018320;28;20063;-74
2021/11/14 02:22:16;;;;;;;2.97;1.30;;;10.90;3.30;;;;;;5017725;28;20520;-74
2021/11/14 02:24:42;;;;;;;0.93;0.45;;;10.80;6.50;;;;;;5017669;28;20044;-74
2021/11/14 02:27:08;;;;;;;0.63;0.40;;;10.90;7.10;;;;;;5018198;28;20038;-74
2021/11/14 02:29:34;;;;;;;1.05;0.47;;;11.00;1.80;;;;;;5017808;28;20042;-74
2021/11/14 02:32:00;;;;;;;1.05;0.55;;;11.10;3.90;;;;;;5017108;28;20050;-74
2021/11/14 02:34:26;;;;;;;0.68;0.50;;;11.10;1.00;;;;;;5017491;28;20042;-73
2021/11/14 02:36:52;;;;;;;0.43;0.38;;;11.10;1.00;;;;;;5017436;28;20392;-74
2021/11/14 02:39:18;;;;;;;1.20;0.50;;;11.20;2.90;;;;;;5017301;28;20050;-74
2021/11/14 02:41:45;;;;;;;1.13;0.43;;;11.10;1.00;;;;;;5017305;28;20533;-74
2021/11/14 02:44:11;;;;;;;0.57;0.50;;;11.10;2.60;;;;;;5017240;28;20045;-74
2021/11/14 02:46:38;;;;;;;0.93;0.20;;;11.00;6.50;;;;;;5017016;28;20073;-73
2021/11/14 02:49:04;;;;;;;0.45;0.20;;;10.90;6.70;;;;;;5016984;28;20136;-74
2021/11/14 02:51:31;;;;;;;0.68;0.50;;;10.90;2.70;;;;;;5016902;28;20125;-74
2021/11/14 02:53:58;;;;;;;0.40;0.30;;;10.90;7.50;;;;;;5016654;28;20042;-74
2021/11/14 02:56:25;;;;;;;0.32;0.32;;;10.80;11.00;;;;;;5016540;28;20567;-74
2021/11/14 02:58:51;;;;;;;0.88;0.50;;;10.80;6.40;;;;;;5016947;28;20104;-74
2021/11/14 03:01:32;;;;;;;0.40;0.40;;;10.90;8.20;;;;;;5016477;28;20045;-74
2021/11/14 03:03:58;;;;;;;1.13;0.47;;;10.90;7.60;;;;;;5016549;28;20042;-74
2021/11/14 03:06:27;;;;;;;1.17;0.52;;;10.90;4.00;;;;;;5016593;28;20107;-74
2021/11/14 03:08:53;;;;;;;0.80;0.77;;;10.90;2.70;;;;;;5016465;28;20081;-74
2021/11/14 03:11:20;;;;;;;0.88;0.80;;;10.80;3.80;;;;;;5016544;28;20049;-74
2021/11/14 03:13:46;;;;;;;1.35;1.10;;;10.70;7.30;;;;;;5016204;28;20112;-74
2021/11/14 03:16:16;;;;;;;0.90;0.70;;;10.70;5.90;;;;;;5016460;28;20038;-74
2021/11/14 03:18:42;;;;;;;2.10;0.82;;;10.50;12.10;;;;;;5016226;28;20073;-74
2021/11/14 03:21:08;;;;;;;0.98;0.80;;;10.60;1.00;;;;;;5016267;28;20570;-74
2021/11/14 03:23:35;;;;;;;0.82;0.80;;;10.60;1.00;;;;;;5010130;28;20038;-74
2021/11/14 03:26:02;;;;;;;0.52;0.52;;;10.60;1.00;;;;;;4996350;28;20101;-74
2021/11/14 03:28:29;;;;;;;0.32;0.32;;;10.60;1.00;;;;;;5006892;28;20061;-76
2021/11/14 03:30:57;;;;;;;1.23;0.63;;;10.60;1.00;;;;;;5014962;28;20508;-73
2021/11/14 03:33:23;;;;;;;1.38;0.40;;;10.70;1.00;;;;;;5015245;28;20034;-74
2021/11/14 03:35:51;;;;;;;2.33;0.50;;;10.80;1.00;;;;;;5015726;28;20041;-74
2021/11/14 03:38:23;;;;;;;0.77;0.68;;;10.70;1.00;;;;;;5015160;28;20041;-74
2021/11/14 03:40:50;;;;;;;0.60;0.60;;;10.70;1.00;;;;;;5014884;28;20045;-74
2021/11/14 03:43:16;;;;;;;1.38;0.30;;;10.80;1.00;;;;;;5015793;28;20060;-74
2021/11/14 03:45:43;;;;;;;0.38;0.32;;;10.80;1.00;;;;;;5015738;28;20092;-74
2021/11/14 03:48:10;;;;;;;2.72;0.50;;;10.80;1.00;;;;;;5015517;28;20128;-74
2021/11/14 03:50:36;;;;;;;1.25;0.70;;;10.70;1.00;;;;;;5016645;28;20120;-74
2021/11/14 03:53:03;;;;;;;0.52;0.43;;;10.60;1.00;;;;;;5016282;28;20053;-74
2021/11/14 03:55:29;;;;;;;0.93;0.70;;;10.70;1.00;;;;;;5016080;28;20038;-74
2021/11/14 03:57:55;;;;;;;0.82;0.60;;;10.70;1.00;;;;;;5015927;28;20069;-74
2021/11/14 04:00:26;;;;;;;0.50;0.50;;;10.80;1.00;;;;;;5016076;28;20042;-74
2021/11/14 04:02:54;;;;;;;1.05;0.55;;;10.90;1.00;;;;;;5015982;28;20046;-74
2021/11/14 04:05:21;;;;;;;1.08;0.55;;;10.90;1.00;;;;;;5015849;28;20085;-74
2021/11/14 04:07:47;;;;;;;1.50;0.90;;;10.80;1.00;;;;;;5015726;28;20034;-73
2021/11/14 04:10:14;;;;;;;1.38;0.70;;;10.80;1.00;;;;;;5016223;28;20038;-74
2021/11/14 04:12:41;;;;;;;0.50;0.45;;;10.80;1.00;;;;;;5015655;28;20064;-74
2021/11/14 04:15:10;;;;;;;2.53;0.50;;;10.90;1.00;;;;;;5015431;28;20123;-74
2021/11/14 04:17:38;;;;;;;1.27;0.82;;;10.80;1.00;;;;;;5016225;28;20072;-74
2021/11/14 04:20:05;;;;;;;0.82;0.52;;;10.60;1.00;;;;;;5015804;28;20042;-73
2021/11/14 04:22:31;;;;;;;1.58;0.57;;;10.60;1.00;;;;;;5015182;28;20128;-73
2021/11/14 04:24:57;;;;;;;0.55;0.50;;;10.50;1.00;;;;;;5015547;28;20038;-73
2021/11/14 04:27:23;;;;;;;0.70;0.60;;;10.70;1.00;;;;;;5015528;28;20092;-74
2021/11/14 04:29:49;;;;;;;1.58;0.60;;;10.60;1.00;;;;;;5015846;28;20065;-74
2021/11/14 04:32:15;;;;;;;1.35;0.57;;;10.70;1.00;;;;;;5015301;28;20128;-74
2021/11/14 04:34:41;;;;;;;1.20;0.63;;;10.60;1.00;;;;;;5015074;28;20042;-73
2021/11/14 04:37:08;;;;;;;1.75;0.57;;;10.50;1.00;;;;;;5015334;28;20038;-73
2021/11/14 04:39:34;;;;;;;1.33;0.80;;;10.40;1.00;;;;;;5015149;28;20087;-73
2021/11/14 04:42:02;;;;;;;1.05;0.68;;;10.40;1.00;;;;;;5015348;28;20046;-74
2021/11/14 04:44:28;;;;;;;2.38;0.63;;;10.40;1.00;;;;;;5015146;28;20042;-74
2021/11/14 04:46:54;;;;;;;2.10;0.60;;;10.40;1.00;;;;;;5015167;28;20052;-74
2021/11/14 04:49:21;;;;;;;3.92;0.50;;;10.50;1.00;;;;;;5014678;28;20054;-74
2021/11/14 04:51:48;;;;;;;2.13;1.23;;;10.50;1.00;;;;;;5014875;28;20180;-74
2021/11/14 04:54:15;;;;;;;0.88;0.85;;;10.50;1.00;;;;;;5013599;28;20441;-74
2021/11/14 04:56:42;;;;;;;1.13;0.70;;;10.30;1.00;;;;;;5014806;28;20500;-74
2021/11/14 04:59:08;;;;;;;0.95;0.60;;;10.20;1.00;;;;;;5014690;28;20041;-74
2021/11/14 05:01:35;;;;;;;0.68;0.65;;;10.20;1.00;;;;;;5014720;28;20078;-74
2021/11/14 05:04:01;;;;;;;1.13;0.80;;;10.20;1.00;;;;;;5014751;28;20046;-74
2021/11/14 05:06:27;;;;;;;1.20;0.90;;;10.10;1.00;;;;;;5014726;28;20041;-74
2021/11/14 05:08:53;;;;;;;1.52;0.90;;;10.20;1.00;;;;;;5014768;28;20041;-73
2021/11/14 05:11:18;;;;;;;0.60;0.60;;;10.20;1.00;;;;;;5014647;28;20044;-74
2021/11/14 05:13:44;;;;;;;1.15;0.88;;;10.10;1.00;;;;;;5014388;28;20046;-74
2021/11/14 05:16:11;;;;;;;1.15;0.80;;;10.10;1.00;;;;;;5014582;28;20076;-73
2021/11/14 05:18:36;;;;;;;0.98;0.80;;;10.10;1.00;;;;;;5014518;28;20076;-74
2021/11/14 05:21:02;;;;;;;1.50;0.90;;;10.00;1.00;;;;;;5014225;28;20085;-74
2021/11/14 05:23:28;;;;;;;1.30;1.00;;;10.00;1.00;;;;;;5014548;28;20042;-74
2021/11/14 05:25:54;;;;;;;2.40;0.90;;;9.90;1.00;;;;;;5014508;28;20358;-73
2021/11/14 05:28:20;;;;;;;1.67;0.90;;;9.90;1.00;;;;;;5014913;28;20038;-73
2021/11/14 05:30:47;;;;;;;3.08;1.50;;;9.90;1.00;;;;;;5014745;28;20589;-73
2021/11/14 05:33:14;;;;;;;2.03;1.50;;;9.90;1.00;;;;;;5013939;28;20044;-74
2021/11/14 05:35:40;;;;;;;1.45;0.95;;;10.10;1.00;;;;;;5014672;28;20037;-74
2021/11/14 05:38:07;;;;;;;1.35;0.75;;;10.10;1.00;;;;;;5014864;28;20053;-74
2021/11/14 05:40:33;;;;;;;0.68;0.68;;;10.00;1.00;;;;;;5014359;28;20042;-74
2021/11/14 05:43:00;;;;;;;2.53;0.63;;;10.00;1.00;;;;;;5014067;28;20497;-74
2021/11/14 05:45:26;;;;;;;2.75;1.48;;;9.90;1.00;;;;;;5014341;28;20041;-73
2021/11/14 05:47:53;;;;;;;1.38;0.93;;;9.90;1.00;;;;;;5014027;28;20097;-73
2021/11/14 05:50:20;;;;;;;3.13;1.35;;;10.00;1.00;;;;;;5014379;28;20044;-74
2021/11/14 05:52:45;;;;;;;2.85;1.33;;;10.00;1.00;;;;;;5014269;28;20046;-74
2021/11/14 05:55:12;;;;;;;3.20;1.45;;;10.10;1.00;;;;;;5014228;28;20056;-74
2021/11/14 06:00:24;;;;;;;;;;;10.10;1.00;;;;;;5015235;28;20053;-74
2021/11/14 06:03:00;;;;;;;1.30;0.95;;;10.10;1.00;;;;;;5014098;28;20007;-74
2021/11/14 06:05:26;;;;;;;1.13;1.02;;;10.10;1.00;;;;;;5015953;28;20548;-74
2021/11/14 06:07:52;;;;;;;1.20;1.10;;;10.10;1.00;;;;;;5017458;28;20042;-74
2021/11/14 06:10:18;;;;;;;1.23;0.60;;;10.30;1.00;;;;;;5018252;28;20358;-74
2021/11/14 06:12:45;;;;;;;1.60;0.80;;;10.30;1.00;;;;;;5017621;28;20485;-74
2021/11/14 06:15:14;;;;;;;2.13;1.10;;;10.40;1.00;;;;;;5017294;28;20516;-74
2021/11/14 06:17:40;;;;;;;1.15;0.85;;;10.40;1.00;;;;;;5017408;28;20044;-74
2021/11/14 06:20:07;;;;;;;1.05;0.80;;;10.40;1.00;;;;;;5016859;28;20112;-74
2021/11/14 06:22:33;;;;;;;1.35;0.52;;;10.50;1.00;;;;;;5018288;28;20145;-74
2021/11/14 06:24:59;;;;;;;1.75;0.80;;;10.50;1.00;;;;;;5017167;28;20121;-74
2021/11/14 06:27:25;;;;;;;0.85;0.60;;;10.50;1.00;;;;;;5017365;28;20041;-74
2021/11/14 06:29:51;;;;;;;1.75;0.95;;;10.50;1.00;;;;;;5017202;28;20038;-74
2021/11/14 06:32:17;;;;;;;1.13;0.80;;;10.50;4.60;;;;;;5017053;28;20103;-74
2021/11/14 06:34:42;;;;;;;0.88;0.60;;;10.40;12.30;;;;;;5017364;28;20042;-74
2021/11/14 06:37:08;;;;;;;1.05;0.40;;;10.30;21.00;;;;;;5017141;28;20049;-74
2021/11/14 06:39:38;;;;;;;2.38;0.52;;;10.40;24.80;;;;;;5017120;28;20037;-74
2021/11/14 06:42:04;;;;;;;0.40;0.30;;;10.20;44.80;;;;;;5017281;28;20050;-74
2021/11/14 06:44:29;;;;;;;1.88;0.50;;;10.20;64.00;;;;;;5016712;28;20436;-74
2021/11/14 06:46:55;;;;;;;1.27;0.40;;;10.10;72.70;;;;;;5017059;28;20034;-74
2021/11/14 06:49:22;;;;;;;1.20;0.40;;;10.20;60.70;;;;;;5016983;28;20057;-74
2021/11/14 06:51:48;;;;;;;0.43;0.40;;;10.20;62.20;;;;;;5017226;28;20044;-74
2021/11/14 06:54:13;;;;;;;1.15;0.40;;;10.20;35.30;;;;;;5016906;28;20046;-74
2021/11/14 06:56:39;;;;;;;1.00;0.30;;;10.30;25.00;;;;;;5017418;28;20033;-74
2021/11/14 06:59:05;;;;;;;0.38;0.38;;;10.30;3.30;;;;;;5017200;28;20049;-74
2021/11/14 07:01:31;;;;;;;2.20;2.00;;;10.40;1.00;;;;;;5016478;28;20524;-74
2021/11/14 07:03:57;;;;;;;0.80;0.30;;;10.40;1.00;;;;;;5017164;28;20073;-74
2021/11/14 07:06:23;;;;;;;0.38;0.38;;;10.50;1.00;;;;;;5017492;28;20038;-73
2021/11/14 07:08:48;;;;;;;0.50;0.40;;;10.60;1.00;;;;;;5017022;28;20053;-73
2021/11/14 07:11:17;;;;;;;1.65;0.40;;;10.70;1.00;;;;;;5016570;28;20133;-74
2021/11/14 07:13:44;;;;;;;0.88;0.40;;;10.70;1.00;;;;;;5016819;28;20042;-74
2021/11/14 07:16:10;;;;;;;2.92;0.30;;;10.70;1.00;;;;;;5015850;28;20200;-74
2021/11/14 07:18:36;;;;;;;2.00;0.50;;;10.80;1.00;;;;;;5016309;28;20065;-74
2021/11/14 07:21:02;;;;;;;2.45;0.50;;;10.80;1.00;;;;;;5016220;28;20045;-74
2021/11/14 07:23:28;;;;;;;0.73;0.40;;;10.70;1.00;;;;;;5016217;28;20083;-74
2021/11/14 07:25:54;;;;;;;1.02;0.40;;;10.70;1.00;;;;;;5016317;28;20042;-73
2021/11/14 07:28:20;;;;;;;0.40;0.30;;;10.80;1.00;;;;;;5016748;28;20429;-73
2021/11/14 07:30:46;;;;;;;0.73;0.55;;;10.90;1.00;;;;;;5015740;28;20064;-73
2021/11/14 07:33:12;;;;;;;1.10;0.60;;;10.90;1.00;;;;;;5016146;28;20481;-74
2021/11/14 07:35:38;;;;;;;3.35;1.90;;;11.10;1.00;;;;;;5016180;28;20041;-74
2021/11/14 07:38:04;;;;;;;2.63;1.15;;;11.10;1.00;;;;;;5016120;28;20121;-74
2021/11/14 07:40:30;;;;;;;0.50;0.50;;;11.20;1.00;;;;;;5016094;28;20133;-73
2021/11/14 07:42:56;;;;;;;1.40;0.80;;;11.40;1.00;;;;;;5015712;28;20064;-73
2021/11/14 07:45:24;;;;;;;1.65;0.70;;;11.40;1.00;;;;;;5016318;28;20520;-74
2021/11/14 07:47:52;;;;;;;1.10;0.50;;;11.30;1.00;;;;;;5016027;28;20075;-73
2021/11/14 07:50:20;;;;;;;0.70;0.57;;;11.30;1.00;;;;;;5016040;28;20071;-74
2021/11/14 07:52:46;;;;;;;1.13;0.70;;;11.20;1.00;;;;;;5015649;28;20038;-73
2021/11/14 07:55:13;;;;;;;0.75;0.60;;;11.20;1.00;;;;;;5016060;28;20060;-73
2021/11/14 07:57:43;;;;;;;1.45;0.85;;;11.30;1.00;;;;;;5015794;28;20088;-73
2021/11/14 08:00:15;;;;;;;0.35;0.35;;;11.40;1.00;;;;;;5019740;28;20029;-72
2021/11/14 08:02:41;;;;;;;1.42;0.57;;;11.40;1.00;;;;;;5034906;28;20052;-73
2021/11/14 08:05:08;;;;;;;1.80;0.60;;;11.40;1.00;;;;;;5035564;28;20048;-73
2021/11/14 08:07:34;;;;;;;0.55;0.55;;;11.40;1.00;;;;;;5035751;28;20121;-73
2021/11/14 08:10:00;;;;;;;1.73;0.40;;;11.40;1.00;;;;;;5035580;28;20491;-72
2021/11/14 08:12:25;;;;;;;1.30;0.85;;;11.30;1.00;;;;;;5035469;28;20075;-73
2021/11/14 08:14:51;;;;;;;1.15;0.80;;;11.40;1.00;;;;;;5035482;28;20045;-73
2021/11/14 08:17:18;;;;;;;0.80;0.52;;;11.40;1.00;;;;;;5034907;28;20041;-73
2021/11/14 08:19:44;;;;;;;1.40;0.60;;;11.50;1.00;;;;;;5035375;28;20041;-73
2021/11/14 08:22:09;;;;;;;1.08;0.70;;;11.70;1.00;;;;;;5034494;28;20056;-73
2021/11/14 08:24:35;;;;;;;1.75;0.80;;;11.70;1.00;;;;;;5034824;28;20404;-73
2021/11/14 08:27:01;;;;;;;1.00;0.65;;;11.70;1.00;;;;;;5034782;28;20049;-73
2021/11/14 08:29:27;;;;;;;0.95;0.60;;;11.70;1.00;;;;;;5034407;28;20512;-73
2021/11/14 08:31:53;;;;;;;0.80;0.60;;;11.70;1.00;;;;;;5034560;28;20045;-73
2021/11/14 08:34:19;;;;;;;1.27;0.80;;;11.70;1.00;;;;;;5034426;28;20033;-73
2021/11/14 08:36:45;;;;;;;0.85;0.80;;;11.70;1.00;;;;;;5034264;28;20037;-72
2021/11/14 08:39:11;;;;;;;2.33;0.50;;;11.80;1.00;;;;;;5033835;28;20037;-73
2021/11/14 08:41:37;;;;;;;1.48;0.50;;;11.80;1.00;;;;;;5034410;28;20140;-73
2021/11/14 08:44:03;;;;;;;1.55;0.50;;;11.70;1.00;;;;;;5028598;28;20042;-73
2021/11/14 08:46:29;;;;;;;0.52;0.50;;;11.70;1.00;;;;;;5014766;28;20496;-72
2021/11/14 08:48:54;;;;;;;1.67;0.80;;;11.70;1.00;;;;;;5015271;28;20046;-73
2021/11/14 08:51:21;;;;;;;2.17;0.90;;;11.80;1.00;;;;;;5014379;28;20050;-73
2021/11/14 08:53:47;;;;;;;0.85;0.60;;;11.80;1.00;;;;;;5014057;28;20528;-72
2021/11/14 08:56:13;;;;;;;12.30;8.07;;;11.90;1.00;;;;;;5014720;28;20492;-73
2021/11/14 08:58:40;;;;;;;1.95;1.20;;;11.90;1.00;;;;;;5015356;28;20045;-73
2021/11/14 09:01:09;;;;;;;2.72;1.95;;;11.90;1.00;;;;;;5014869;28;20057;-73
2021/11/14 09:03:35;;;;;;;1.00;0.65;;;11.80;1.00;;;;;;5030071;28;20436;-73
2021/11/14 09:06:01;;;;;;;0.77;0.52;;;11.70;1.00;;;;;;5014927;28;20066;-73
2021/11/14 09:08:27;;;;;;;0.30;0.30;;;11.70;1.00;;;;;;5014964;28;20128;-73
2021/11/14 09:10:53;;;;;;;1.20;0.70;;;11.70;1.00;;;;;;5013897;28;20128;-72
2021/11/14 09:13:19;;;;;;;0.73;0.50;;;11.80;1.00;;;;;;5012955;28;20128;-73
2021/11/14 09:15:45;;;;;;;1.08;0.55;;;11.80;1.00;;;;;;5012951;28;20389;-73
2021/11/14 09:18:12;;;;;;;2.08;0.45;;;11.90;1.00;;;;;;5013492;28;20042;-72
2021/11/14 09:20:37;;;;;;;0.98;0.50;;;11.90;1.00;;;;;;5013691;28;20474;-72
2021/11/14 09:23:04;;;;;;;0.30;0.30;;;12.00;1.00;;;;;;5014380;28;20065;-73
2021/11/14 09:25:30;;;;;;;0.40;0.38;;;12.00;1.00;;;;;;5014515;28;20045;-73
2021/11/14 09:27:56;;;;;;;2.15;0.52;;;11.90;1.00;;;;;;5015134;28;20062;-73
2021/11/14 09:30:22;;;;;;;0.70;0.50;;;11.90;1.00;;;;;;5015335;28;20361;-73
2021/11/14 09:32:48;;;;;;;0.90;0.65;;;11.80;1.00;;;;;;5012895;28;20066;-73
2021/11/14 09:35:15;;;;;;;0.70;0.57;;;11.80;1.00;;;;;;5011070;28;20038;-73
2021/11/14 09:37:41;;;;;;;1.20;0.52;;;11.70;1.00;;;;;;5011564;28;20046;-73
2021/11/14 09:40:09;;;;;;;1.60;0.50;;;11.80;1.00;;;;;;5014045;28;20092;-73
2021/11/14 09:42:36;;;;;;;0.70;0.55;;;11.70;1.00;;;;;;5016134;28;20132;-73
2021/11/14 09:45:04;;;;;;;1.73;0.80;;;11.70;1.00;;;;;;5015709;28;20040;-73
2021/11/14 09:47:30;;;;;;;0.70;0.70;;;11.70;1.00;;;;;;5016053;28;20041;-73
2021/11/14 09:49:57;;;;;;;1.33;0.65;;;11.70;1.00;;;;;;5015873;28;20100;-73
2021/11/14 09:52:25;;;;;;;2.58;0.90;;;11.60;1.00;;;;;;5016108;28;20120;-73
2021/11/14 09:54:52;;;;;;;1.98;1.00;;;11.70;1.00;;;;;;5016110;28;20034;-73
2021/11/14 09:57:17;;;;;;;2.00;0.90;;;11.80;1.00;;;;;;5017416;28;20511;-73
2021/11/14 09:59:44;;;;;;;0.85;0.70;;;11.90;1.00;;;;;;5015281;28;20041;-73
2021/11/14 10:02:10;;;;;;;1.77;1.20;;;11.90;1.00;;;;;;5006748;28;20046;-74
2021/11/14 10:04:38;;;;;;;1.88;0.75;;;12.00;1.00;;;;;;5015859;28;20117;-72
2021/11/14 10:07:14;;;;;;;0.55;0.55;;;11.90;1.00;;;;;;5016674;28;20079;-72
2021/11/14 10:09:44;;;;;;;1.45;0.80;;;12.10;1.00;;;;;;5017293;28;20041;-74
2021/11/14 10:12:24;;;;;;;1.98;0.80;;;12.20;1.00;;;;;;5017536;28;20038;-74
2021/11/14 10:15:06;;;;;;;1.27;0.60;;;12.30;1.00;;;;;;5001123;28;20528;-73
2021/11/14 10:17:32;;;;;;;2.15;0.82;;;12.40;1.00;;;;;;5016033;28;20038;-74
2021/11/14 10:20:28;;;;;;;0.73;0.73;;;12.30;1.00;;;;;;5016240;28;20053;-74
2021/11/14 10:23:01;;;;;;;1.10;0.80;;;12.10;1.00;;;;;;5009544;28;20077;-76
2021/11/14 10:25:29;;;;;;;2.38;0.77;;;12.00;1.00;;;;;;4998803;28;20066;-73
2021/11/14 10:27:57;;;;;;;1.13;0.70;;;12.00;1.00;;;;;;5005639;28;20628;-75
2021/11/14 10:30:26;;;;;;;0.90;0.70;;;11.80;1.00;;;;;;5005416;28;20042;-74
2021/11/14 10:32:59;;;;;;;1.40;0.82;;;11.80;1.00;;;;;;5018413;28;20046;-76
2021/11/14 10:35:26;;;;;;;1.15;0.82;;;11.80;1.00;;;;;;5010564;28;20092;-75
2021/11/14 10:37:54;;;;;;;1.17;0.68;;;11.80;1.00;;;;;;5004487;28;20050;-75
2021/11/14 10:40:30;;;;;;;1.70;0.70;;;11.80;1.00;;;;;;4999597;28;20049;-77
2021/11/14 10:42:59;;;;;;;1.42;0.88;;;12.00;1.00;;;;;;4996930;28;20048;-74
2021/11/14 10:45:27;;;;;;;1.40;1.10;;;12.10;1.00;;;;;;5007828;28;20046;-74
2021/11/14 10:48:05;;;;;;;2.20;0.75;;;12.00;1.00;;;;;;5007447;28;20050;-74
2021/11/14 10:50:35;;;;;;;0.70;0.57;;;12.00;1.00;;;;;;5026225;28;20053;-74
2021/11/14 10:53:12;;;;;;;0.93;0.52;;;12.10;1.00;;;;;;5016899;28;20136;-74
2021/11/14 10:55:42;;;;;;;1.83;0.80;;;12.30;1.00;;;;;;5013616;28;20069;-74
2021/11/14 10:58:09;;;;;;;2.40;0.77;;;12.50;1.00;;;;;;5011863;28;20508;-75
2021/11/14 11:00:37;;;;;;;3.05;0.80;;;12.30;1.00;;;;;;5007370;28;20046;-75
2021/11/14 11:03:03;;;;;;;0.90;0.77;;;12.50;1.00;;;;;;4995558;28;20129;-75
2021/11/14 11:05:30;;;;;;;1.25;0.60;;;12.60;1.00;;;;;;5013660;28;20064;-75
2021/11/14 11:08:03;;;;;;;14.27;9.20;;;12.70;1.00;;;;;;5009662;28;20042;-75
2021/11/14 11:10:39;;;;;;;3.03;2.45;;;12.80;1.00;;;;;;5006427;28;20074;-75
2021/11/14 11:13:13;;;;;;;1.17;1.08;;;12.90;1.00;;;;;;5029481;28;20041;-75
2021/11/14 11:15:41;;;;;;;1.40;0.93;;;12.80;1.00;;;;;;5017238;28;20048;-76
2021/11/14 11:18:12;;;;;;;1.35;0.80;;;12.60;1.00;;;;;;5014253;28;20101;-74
2021/11/14 11:20:38;;;;;;;1.35;0.88;;;12.40;1.00;;;;;;5014907;28;20042;-75
2021/11/14 11:23:07;;;;;;;1.58;0.88;;;12.30;1.00;;;;;;5014264;28;20132;-75
2021/11/14 11:25:51;;;;;;;1.67;1.00;;;12.40;1.00;;;;;;5024874;28;20038;-75
2021/11/14 11:28:28;;;;;;;1.02;0.93;;;12.40;1.00;;;;;;5025899;28;20038;-74
2021/11/14 11:30:57;;;;;;;1.08;0.80;;;12.40;1.00;;;;;;5014799;28;20092;-74
2021/11/14 11:33:24;;;;;;;1.40;0.90;;;12.40;1.00;;;;;;5014320;28;20096;-75
2021/11/14 11:35:51;;;;;;;0.70;0.60;;;12.50;1.00;;;;;;5014706;28;20049;-75
2021/11/14 11:38:20;;;;;;;2.08;0.77;;;12.40;1.00;;;;;;5014037;28;20065;-75
2021/11/14 11:40:47;;;;;;;1.50;0.77;;;12.30;1.00;;;;;;5013279;28;20037;-75
2021/11/14 11:43:13;;;;;;;1.95;0.95;;;12.40;1.00;;;;;;5014232;28;20045;-75
2021/11/14 11:45:44;;;;;;;2.28;0.68;;;12.40;1.00;;;;;;5013907;28;20524;-75
2021/11/14 11:48:24;;;;;;;2.88;1.33;;;12.50;1.00;;;;;;5014615;28;20050;-74
2021/11/14 11:50:51;;;;;;;1.20;0.70;;;12.50;1.00;;;;;;5014812;28;20500;-74
2021/11/14 11:53:28;;;;;;;1.17;0.88;;;12.60;1.00;;;;;;5014062;28;20180;-75
2021/11/14 11:56:13;;;;;;;1.08;0.98;;;12.30;1.00;;;;;;5014764;28;20038;-75
2021/11/14 11:58:48;;;;;;;2.28;0.93;;;12.50;1.00;;;;;;5014337;28;20045;-74
2021/11/14 12:01:24;;;;;;;1.20;0.85;;;12.60;1.00;;;;;;5013918;28;20125;-74
2021/11/14 12:03:52;;;;;;;1.52;0.90;;;12.60;1.00;;;;;;5011986;28;20050;-74
2021/11/14 12:06:28;;;;;;;1.65;0.98;;;12.70;1.00;;;;;;5010883;28;20484;-74
2021/11/14 12:08:57;;;;;;;2.00;1.25;;;12.80;1.00;;;;;;5014579;28;20072;-74
2021/11/14 12:11:29;;;;;;;0.70;0.70;;;12.80;1.00;;;;;;5013933;28;20061;-74
2021/11/14 12:13:57;;;;;;;2.13;1.02;;;12.70;1.00;;;;;;5014296;28;20044;-74
2021/11/14 12:16:32;;;;;;;2.88;1.20;;;12.60;1.00;;;;;;5013806;28;20042;-74
2021/11/14 12:19:02;;;;;;;4.13;1.40;;;12.60;1.00;;;;;;5013931;28;20038;-74
2021/11/14 12:21:30;;;;;;;2.30;1.00;;;12.70;1.00;;;;;;5013993;28;20042;-74
2021/11/14 12:24:08;;;;;;;1.70;1.08;;;12.80;1.00;;;;;;5014261;28;20136;-74
2021/11/14 12:26:36;;;;;;;1.55;1.20;;;13.00;1.00;;;;;;5013884;28;20100;-75
2021/11/14 12:29:08;;;;;;;2.08;1.23;;;13.10;1.00;;;;;;5012834;28;20071;-73
2021/11/14 12:31:52;;;;;;;1.95;0.98;;;13.30;1.00;;;;;;5020333;28;20034;-74
2021/11/14 12:34:22;;;;;;;22.02;20.13;;;13.20;1.00;;;;;;5013175;28;20172;-75
2021/11/14 12:36:48;;;;;;;3.88;1.63;;;13.20;1.00;;;;;;5012343;28;20080;-75
2021/11/14 12:39:23;;;;;;;2.58;1.40;;;13.20;1.00;;;;;;5012159;28;20034;-75
2021/11/14 12:41:58;;;;;;;1.85;1.40;;;12.90;1.00;;;;;;5012162;28;20072;-75
2021/11/14 12:44:26;;;;;;;0.95;0.70;;;12.80;1.00;;;;;;5011020;28;20045;-75
2021/11/14 12:46:52;;;;;;;0.63;0.50;;;12.80;1.00;;;;;;5011818;28;20034;-75
2021/11/14 12:49:18;;;;;;;2.15;0.88;;;12.90;1.00;;;;;;5012134;28;20104;-75
2021/11/14 12:51:52;;;;;;;0.82;0.75;;;13.00;1.00;;;;;;5011231;28;20595;-74
2021/11/14 12:54:18;;;;;;;1.45;0.60;;;12.60;1.00;;;;;;5011018;28;20038;-74
2021/11/14 12:56:50;;;;;;;0.85;0.70;;;12.60;1.00;;;;;;5012479;28;20128;-76
2021/11/14 12:59:20;;;;;;;1.75;1.23;;;12.60;1.00;;;;;;5013103;28;20030;-75
2021/11/14 13:02:01;;;;;;;2.70;1.05;;;12.70;1.00;;;;;;5013458;28;20070;-75